Weather History for Aurora, NE

Change the Weather History Date:

Wednesday, November 28, 2012

  Actual Average Record
Temperature  
Mean Temperature 32 °F -  
Max Temperature 50 °F 37 °F 70 °F (2014)
Min Temperature 14 °F 19 °F -9 °F (1976)
Degree Days  
Heating Degree Days 33    
Moisture  
Dew Point 21 °F    
Average Humidity 64    
Maximum Humidity 89    
Minimum Humidity 35    
Precipitation  
Precipitation 0.00 in - - ()
Sea Level Pressure  
Sea Level Pressure 30.21 in    
Wind  
Wind Speed 7 mph (SSW)    
Max Wind Speed 13 mph    
Max Gust Speed 17 mph    
Visibility 10 miles    
Events      
Averages and records for this station are not official NWS values.
T = Trace of Precipitation, MM = Missing Value Source: NWS Daily Summary

Daily Weather History Graph

Daily Weather History Graph

Search for Another Location

Airport:

Trip Planner

Search our weather history database for the weather conditions in past years. The results will help you decide how hot, cold, wet, or windy it might be!

Date:

Astronomy

Nov. 28, 2012 Rise Set
Actual Time 7:34 AM CST 5:05 PM CST
Civil Twilight 7:04 AM CST 5:35 PM CST
Nautical Twilight 6:30 AM CST 6:09 PM CST
Astronomical Twilight 5:57 AM CST 6:42 PM CST
Moon 5:21 PM CST (11/28) 7:33 AM CST (11/28)
Length of Visible Light 10h 31m
Length of Day
9h 30m
Full, 100% of the Moon is Illuminated
Nov 28
Full
Dec 6
Last Quarter
Dec 13
New
Dec 19
First Quarter
Dec 28
Full

Hourly Weather History & Observations

Time (CST) Temp. Windchill Dew Point Humidity Pressure Visibility Wind Dir Wind Speed Gust Speed Precip Events Conditions
12:15 AM 22.5 °F 13.2 °F 18.5 °F 85% 30.30 in 10.0 mi NNW 8.1 mph - N/A   Clear
12:35 AM 21.9 °F 13.4 °F 17.4 °F 83% 30.30 in 10.0 mi NW 6.9 mph - N/A   Clear
12:55 AM 22.3 °F 13.9 °F 18.1 °F 84% 30.29 in 10.0 mi NW 6.9 mph - N/A   Clear
1:15 AM 20.3 °F 10.6 °F 16.0 °F 83% 30.29 in 10.0 mi NNW 8.1 mph - N/A   Clear
1:35 AM 21.7 °F 14.3 °F 17.6 °F 84% 30.29 in 10.0 mi NNW 5.8 mph - N/A   Clear
1:55 AM 19.6 °F 14.5 °F 16.0 °F 86% 30.30 in 10.0 mi NW 3.5 mph - N/A   Clear
2:15 AM 21.4 °F - 17.8 °F 86% 30.30 in 10.0 mi Calm Calm - N/A   Clear
2:35 AM 21.6 °F - 18.0 °F 86% 30.31 in 10.0 mi Calm Calm - N/A   Clear
2:55 AM 19.6 °F 14.5 °F 16.3 °F 87% 30.31 in 10.0 mi NW 3.5 mph - N/A   Clear
3:15 AM 19.6 °F 13.0 °F 16.5 °F 88% 30.31 in 10.0 mi NW 4.6 mph - N/A   Clear
3:35 AM 21.2 °F 13.6 °F 17.6 °F 86% 30.31 in 10.0 mi NW 5.8 mph - N/A   Clear
3:55 AM 20.1 °F - 16.7 °F 87% 30.31 in 10.0 mi Calm Calm - N/A   Clear
4:15 AM 19.2 °F 12.5 °F 16.5 °F 89% 30.31 in 10.0 mi NNW 4.6 mph - N/A   Clear
4:35 AM 18.0 °F 12.7 °F 14.4 °F 86% 30.31 in 10.0 mi WNW 3.5 mph - N/A   Clear
4:55 AM 18.1 °F 11.3 °F 15.1 °F 88% 30.31 in 10.0 mi West 4.6 mph - N/A   Clear
5:15 AM 17.2 °F 11.9 °F 13.8 °F 86% 30.30 in 10.0 mi WNW 3.5 mph - N/A   Clear
5:35 AM 16.7 °F 11.2 °F 13.3 °F 86% 30.30 in 10.0 mi NW 3.5 mph - N/A   Clear
5:55 AM 16.5 °F - 12.9 °F 86% 30.30 in 10.0 mi Calm Calm - N/A   Clear
6:15 AM 16.5 °F - 13.1 °F 86% 30.31 in 10.0 mi Calm Calm - N/A   Clear
6:35 AM 16.0 °F 10.4 °F 12.2 °F 85% 30.31 in 10.0 mi NW 3.5 mph - N/A   Clear
6:55 AM 16.5 °F 11.0 °F 12.4 °F 84% 30.31 in 10.0 mi North 3.5 mph - N/A   Clear
7:15 AM 15.6 °F - 11.5 °F 84% 30.32 in 10.0 mi Calm Calm - N/A   Clear
7:35 AM 14.9 °F - 10.8 °F 84% 30.32 in 10.0 mi Calm Calm - N/A   Clear
7:55 AM 16.3 °F - 12.2 °F 84% 30.32 in 10.0 mi Calm Calm - N/A   Clear
8:15 AM 17.2 °F 11.9 °F 13.3 °F 84% 30.32 in 10.0 mi West 3.5 mph - N/A   Clear
8:35 AM 20.5 °F - 17.1 °F 87% 30.32 in 10.0 mi Calm Calm - N/A   Clear
8:55 AM 25.2 °F - 21.4 °F 86% 30.32 in 10.0 mi Calm Calm - N/A   Clear
9:15 AM 28.9 °F 23.9 °F 24.4 °F 83% 30.32 in 10.0 mi SSE 4.6 mph - N/A   Clear
9:35 AM 32.0 °F 25.6 °F 25.7 °F 78% 30.32 in 10.0 mi South 6.9 mph - N/A   Clear
9:55 AM 34.3 °F 25.9 °F 25.9 °F 71% 30.32 in 10.0 mi South 11.5 mph - N/A   Clear
10:15 AM 35.8 °F 28.3 °F 25.9 °F 67% 30.32 in 10.0 mi South 10.4 mph - N/A   Clear
10:35 AM 36.7 °F 28.9 °F 25.3 °F 64% 30.32 in 10.0 mi South 11.5 mph - N/A   Clear
10:55 AM 38.7 °F 32.9 °F 25.0 °F 58% 30.31 in 10.0 mi South 8.1 mph - N/A   Clear
11:15 AM 40.1 °F 32.7 °F 24.3 °F 53% 30.30 in 10.0 mi South 12.7 mph - N/A   Clear
11:35 AM 42.3 °F 35.9 °F 23.2 °F 47% 30.28 in 10.0 mi South 11.5 mph - N/A   Clear
11:55 AM 43.9 °F 37.9 °F 22.5 °F 43% 30.27 in 10.0 mi South 11.5 mph - N/A   Clear
12:15 PM 45.3 °F 39.7 °F 21.2 °F 38% 30.25 in 10.0 mi South 11.5 mph 17.3 mph N/A   Clear
12:35 PM 45.7 °F 39.8 °F 21.4 °F 38% 30.24 in 10.0 mi SSE 12.7 mph - N/A   Clear
12:55 PM 47.7 °F - 22.6 °F 37% 30.23 in 10.0 mi South 11.5 mph - N/A   Clear
1:15 PM 48.2 °F - 23.2 °F 37% 30.22 in 10.0 mi South 12.7 mph - N/A   Clear
1:35 PM 49.1 °F - 23.4 °F 36% 30.21 in 10.0 mi South 11.5 mph - N/A   Clear
1:55 PM 48.6 °F - 23.7 °F 38% 30.19 in 10.0 mi South 11.5 mph - N/A   Clear
2:15 PM 48.2 °F - 24.6 °F 40% 30.18 in 10.0 mi South 11.5 mph - N/A   Clear
2:35 PM 49.3 °F - 25.3 °F 39% 30.17 in 10.0 mi South 12.7 mph - N/A   Clear
2:55 PM 50.0 °F - 24.8 °F 37% 30.15 in 10.0 mi South 12.7 mph - N/A   Clear
3:15 PM 50.9 °F - 24.6 °F 36% 30.13 in 10.0 mi South 11.5 mph 16.1 mph N/A   Clear
3:35 PM 50.4 °F - 23.9 °F 36% 30.13 in 10.0 mi South 10.4 mph - N/A   Clear
3:55 PM 50.2 °F - 23.4 °F 35% 30.12 in 10.0 mi South 11.5 mph - N/A   Clear
4:15 PM 49.3 °F - 22.8 °F 35% 30.12 in 10.0 mi South 9.2 mph - N/A   Clear
4:35 PM 47.8 °F - 23.0 °F 38% 30.11 in 10.0 mi South 8.1 mph - N/A   Clear
4:55 PM 46.6 °F - 23.0 °F 39% 30.11 in 10.0 mi South 9.2 mph - N/A   Clear
5:15 PM 45.5 °F 40.8 °F 23.4 °F 42% 30.10 in 10.0 mi South 9.2 mph - N/A   Clear
5:35 PM 44.2 °F 39.7 °F 23.4 °F 44% 30.10 in 10.0 mi South 8.1 mph - N/A   Clear
5:55 PM 43.7 °F 38.6 °F 23.5 °F 45% 30.10 in 10.0 mi South 9.2 mph - N/A   Clear
6:15 PM 43.5 °F 37.9 °F 23.9 °F 46% 30.10 in 10.0 mi SSW 10.4 mph - N/A   Clear
6:35 PM 42.1 °F 36.1 °F 23.9 °F 49% 30.09 in 10.0 mi South 10.4 mph - N/A   Clear
6:55 PM 42.4 °F 37.0 °F 24.1 °F 48% 30.09 in 10.0 mi South 9.2 mph - N/A   Clear
7:15 PM 41.9 °F 36.3 °F 24.3 °F 50% 30.09 in 10.0 mi South 9.2 mph - N/A   Clear
7:35 PM 41.4 °F 35.7 °F 24.4 °F 51% 30.09 in 10.0 mi South 9.2 mph - N/A   Clear
7:55 PM 41.0 °F 34.3 °F 24.8 °F 53% 30.09 in 10.0 mi SSW 11.5 mph - N/A   Clear
8:15 PM 40.6 °F 34.8 °F 24.8 °F 53% 30.09 in 10.0 mi SSW 9.2 mph - N/A   Clear
8:35 PM 39.4 °F 34.5 °F 24.6 °F 56% 30.08 in 10.0 mi SSW 6.9 mph - N/A   Clear
8:55 PM 37.2 °F 31.9 °F 24.6 °F 60% 30.08 in 10.0 mi SSW 6.9 mph - N/A   Clear
9:15 PM 38.7 °F 33.6 °F 25.2 °F 58% 30.08 in 10.0 mi SSW 6.9 mph - N/A   Clear
9:35 PM 37.6 °F 30.5 °F 25.2 °F 61% 30.07 in 10.0 mi SSW 10.4 mph - N/A   Clear
9:55 PM 38.3 °F 31.4 °F 25.7 °F 61% 30.07 in 10.0 mi SSW 10.4 mph - N/A   Clear
10:15 PM 39.6 °F 32.5 °F 26.1 °F 58% 30.06 in 10.0 mi SSW 11.5 mph 16.1 mph N/A   Clear
10:35 PM 39.2 °F 32.5 °F 26.1 °F 59% 30.05 in 10.0 mi SSW 10.4 mph - N/A   Clear
10:55 PM 38.5 °F 31.1 °F 26.4 °F 62% 30.05 in 10.0 mi SSW 11.5 mph - N/A   Clear
11:15 PM 38.5 °F 32.1 °F 26.4 °F 62% 30.05 in 10.0 mi SSW 9.2 mph - N/A   Clear
11:35 PM 36.7 °F 29.9 °F 26.4 °F 66% 30.05 in 10.0 mi SSW 9.2 mph - N/A   Clear
11:55 PM 36.7 °F 29.4 °F 26.6 °F 67% 30.05 in 10.0 mi SSW 10.4 mph - N/A   Clear